Time;durP1;ratioP1;P1;durP2;ratioP2;P2;SDS_P1;SDS_P2;PMS_P1;PMS_P2;Temp;Humidity;BMP_temperature;BMP_pressure;BME280_temperature;BME280_humidity;BME280_pressure;Samples;Min_cycle;Max_cycle;Signal;HPM_P1;HPM_P2
2023/10/05 00:01:03;;;;;;;0.10;0.10;;;;;;;;;;5169585;27;20050;-52
2023/10/05 00:03:30;;;;;;;0.10;0.10;;;;;;;;;;5169227;27;20091;-51
2023/10/05 00:06:05;;;;;;;0.10;0.10;;;;;;;;;;5169268;27;20107;-50
2023/10/05 00:08:35;;;;;;;0.10;0.10;;;;;;;;;;5168723;27;20042;-50
2023/10/05 00:11:01;;;;;;;0.10;0.10;;;;;;;;;;5163514;27;20423;-51
2023/10/05 00:13:26;;;;;;;0.10;0.10;;;;;;;;;;5147745;27;20074;-51
2023/10/05 00:15:53;;;;;;;0.10;0.10;;;;;;;;;;5148132;27;20592;-51
2023/10/05 00:18:20;;;;;;;0.10;0.10;;;;;;;;;;5154586;27;20452;-51
2023/10/05 00:20:48;;;;;;;0.13;0.13;;;;;;;;;;5167875;27;20051;-51
2023/10/05 00:23:14;;;;;;;0.10;0.10;;;;;;;;;;5168408;27;20467;-51
2023/10/05 00:25:39;;;;;;;0.10;0.10;;;;;;;;;;5168404;27;20550;-50
2023/10/05 00:28:09;;;;;;;0.17;0.17;;;;;;;;;;5168084;27;20103;-52
2023/10/05 00:30:35;;;;;;;0.10;0.10;;;;;;;;;;5168490;27;20050;-51
2023/10/05 00:33:03;;;;;;;0.10;0.10;;;;;;;;;;5160440;27;20123;-52
2023/10/05 00:35:33;;;;;;;0.10;0.10;;;;;;;;;;5147443;27;20187;-52
2023/10/05 00:38:12;;;;;;;0.10;0.10;;;;;;;;;;5151610;27;20042;-50
2023/10/05 00:40:42;;;;;;;0.10;0.10;;;;;;;;;;5168270;27;20486;-51
2023/10/05 00:43:12;;;;;;;0.10;0.10;;;;;;;;;;5150415;27;20039;-51
2023/10/05 00:45:39;;;;;;;0.10;0.10;;;;;;;;;;5146296;27;20055;-51
2023/10/05 00:48:40;;;;;;;0.10;0.10;;;;;;;;;;5152099;27;20057;-51
2023/10/05 00:50:51;;;;;;;0.10;0.10;;;;;;;;;;5146150;27;20107;-51
2023/10/05 00:53:17;;;;;;;0.10;0.10;;;;;;;;;;5153838;27;20050;-51
2023/10/05 00:55:45;;;;;;;0.20;0.20;;;;;;;;;;5153643;27;20062;-51
2023/10/05 00:58:14;;;;;;;0.10;0.10;;;;;;;;;;5153708;27;20118;-51
2023/10/05 01:01:01;;;;;;;0.10;0.10;;;;;;;;;;5153958;27;20207;-51
2023/10/05 01:03:46;;;;;;;0.10;0.10;;;;;;;;;;5138353;27;20124;-49
2023/10/05 01:06:26;;;;;;;0.10;0.10;;;;;;;;;;5138188;27;20111;-50
2023/10/05 01:08:59;;;;;;;0.10;0.10;;;;;;;;;;5152848;27;20078;-51
2023/10/05 01:11:38;;;;;;;0.10;0.10;;;;;;;;;;5135011;27;20047;-50
2023/10/05 01:14:06;;;;;;;0.10;0.10;;;;;;;;;;5153320;27;20046;-50
2023/10/05 01:16:32;;;;;;;0.10;0.10;;;;;;;;;;5148206;27;20043;-49
2023/10/05 01:19:00;;;;;;;0.10;0.10;;;;;;;;;;5144476;27;20095;-49
2023/10/05 01:21:26;;;;;;;0.10;0.10;;;;;;;;;;5153932;27;20529;-51
2023/10/05 01:23:51;;;;;;;0.15;0.15;;;;;;;;;;5153537;27;20332;-52
2023/10/05 01:26:18;;;;;;;0.10;0.10;;;;;;;;;;5153468;27;20055;-49
2023/10/05 01:28:44;;;;;;;0.10;0.10;;;;;;;;;;5153242;27;20070;-51
2023/10/05 01:31:16;;;;;;;0.10;0.10;;;;;;;;;;5153662;27;20053;-49
2023/10/05 01:33:43;;;;;;;0.10;0.10;;;;;;;;;;5153337;27;20046;-51
2023/10/05 01:36:11;;;;;;;0.10;0.10;;;;;;;;;;5130780;28;20047;-49
2023/10/05 01:38:38;;;;;;;0.10;0.10;;;;;;;;;;5141435;27;20496;-50
2023/10/05 01:41:05;;;;;;;0.20;0.20;;;;;;;;;;5153233;27;20047;-50
2023/10/05 01:43:30;;;;;;;0.15;0.15;;;;;;;;;;5148045;27;20071;-49
2023/10/05 01:45:56;;;;;;;0.10;0.10;;;;;;;;;;5131211;28;20096;-50
2023/10/05 01:48:26;;;;;;;0.10;0.10;;;;;;;;;;5139304;27;20042;-51
2023/10/05 01:50:52;;;;;;;0.20;0.20;;;;;;;;;;5152962;27;20050;-50
2023/10/05 01:53:18;;;;;;;0.10;0.10;;;;;;;;;;5152939;27;20046;-51
2023/10/05 01:55:45;;;;;;;0.10;0.10;;;;;;;;;;5153053;27;20047;-49
2023/10/05 01:58:26;;;;;;;0.10;0.10;;;;;;;;;;5152613;27;20055;-51
2023/10/05 02:00:54;;;;;;;0.10;0.10;;;;;;;;;;5152768;27;20134;-51
2023/10/05 02:03:23;;;;;;;0.20;0.20;;;;;;;;;;5151765;27;20058;-50
2023/10/05 02:05:50;;;;;;;0.10;0.10;;;;;;;;;;5151916;27;20174;-51
2023/10/05 02:08:16;;;;;;;0.10;0.10;;;;;;;;;;5151998;27;20047;-49
2023/10/05 02:10:46;;;;;;;0.10;0.10;;;;;;;;;;5129401;27;20055;-50
2023/10/05 02:13:12;;;;;;;0.10;0.10;;;;;;;;;;5111046;28;20055;-52
2023/10/05 02:15:39;;;;;;;0.10;0.10;;;;;;;;;;5111452;28;20040;-50
2023/10/05 02:18:18;;;;;;;0.10;0.10;;;;;;;;;;5121217;27;20213;-51
2023/10/05 02:20:46;;;;;;;0.10;0.10;;;;;;;;;;5153066;27;20058;-49
2023/10/05 02:26:00;;;;;;;0.10;0.10;;;;;;;;;;5123080;27;20074;-51
2023/10/05 02:28:25;;;;;;;0.10;0.10;;;;;;;;;;5152613;27;20058;-51
2023/10/05 02:30:53;;;;;;;0.10;0.10;;;;;;;;;;5152986;27;20110;-51
2023/10/05 02:33:23;;;;;;;;;;;;;;;;;;5153303;27;20047;-51
2023/10/05 02:35:50;;;;;;;0.10;0.10;;;;;;;;;;5150602;27;19926;-50
2023/10/05 02:38:19;;;;;;;0.10;0.10;;;;;;;;;;5138701;27;20494;-50
2023/10/05 02:40:54;;;;;;;0.10;0.10;;;;;;;;;;5152856;27;20042;-51
2023/10/05 02:43:26;;;;;;;0.10;0.10;;;;;;;;;;5152448;27;20147;-51
2023/10/05 02:45:56;;;;;;;0.20;0.20;;;;;;;;;;5141598;27;20051;-51
2023/10/05 02:48:24;;;;;;;0.10;0.10;;;;;;;;;;5138700;27;20043;-51
2023/10/05 02:50:52;;;;;;;0.10;0.10;;;;;;;;;;5152463;27;20391;-51
2023/10/05 02:53:18;;;;;;;0.20;0.20;;;;;;;;;;5152769;27;20069;-51
2023/10/05 02:55:51;;;;;;;0.10;0.10;;;;;;;;;;5152911;27;20077;-51
2023/10/05 02:58:17;;;;;;;0.10;0.10;;;;;;;;;;5152637;27;20123;-51
2023/10/05 03:00:44;;;;;;;0.20;0.20;;;;;;;;;;5153086;27;20054;-48
2023/10/05 03:03:13;;;;;;;0.20;0.20;;;;;;;;;;5152642;27;20043;-51
2023/10/05 03:05:41;;;;;;;0.13;0.13;;;;;;;;;;5151549;27;20078;-50
2023/10/05 03:08:09;;;;;;;0.20;0.20;;;;;;;;;;5151744;27;20050;-51
2023/10/05 03:10:34;;;;;;;0.10;0.10;;;;;;;;;;5114457;27;20086;-51
2023/10/05 03:13:02;;;;;;;0.10;0.10;;;;;;;;;;5110447;28;20160;-51
2023/10/05 03:15:28;;;;;;;0.10;0.10;;;;;;;;;;5115293;28;20047;-51
2023/10/05 03:17:57;;;;;;;0.20;0.20;;;;;;;;;;5134340;27;20053;-51
2023/10/05 03:20:24;;;;;;;0.13;0.13;;;;;;;;;;5151969;27;20047;-51
2023/10/05 03:22:54;;;;;;;0.17;0.17;;;;;;;;;;5151981;27;20089;-49
2023/10/05 03:25:21;;;;;;;0.10;0.10;;;;;;;;;;5151743;27;20075;-51
2023/10/05 03:27:48;;;;;;;0.17;0.17;;;;;;;;;;5151479;27;20043;-51
2023/10/05 03:30:14;;;;;;;0.13;0.13;;;;;;;;;;5151772;27;20066;-51
2023/10/05 03:32:40;;;;;;;0.10;0.10;;;;;;;;;;5151861;27;20043;-51
2023/10/05 03:35:08;;;;;;;0.10;0.10;;;;;;;;;;5151679;27;20094;-50
2023/10/05 03:37:34;;;;;;;0.10;0.10;;;;;;;;;;5147592;27;20047;-51
2023/10/05 03:42:31;;;;;;;0.10;0.10;;;;;;;;;;5130437;27;20047;-51
2023/10/05 03:45:02;;;;;;;0.10;0.10;;;;;;;;;;5130827;28;20510;-51
2023/10/05 03:47:28;;;;;;;0.15;0.15;;;;;;;;;;5129804;27;20051;-51
2023/10/05 03:49:55;;;;;;;0.10;0.10;;;;;;;;;;5130528;27;20047;-50
2023/10/05 03:52:21;;;;;;;0.10;0.10;;;;;;;;;;5131017;28;20047;-52
2023/10/05 03:54:47;;;;;;;0.20;0.20;;;;;;;;;;5130837;27;20474;-51
2023/10/05 03:57:13;;;;;;;0.10;0.10;;;;;;;;;;5130981;28;20483;-51
2023/10/05 03:59:39;;;;;;;0.20;0.20;;;;;;;;;;5149015;27;20134;-51
2023/10/05 04:02:09;;;;;;;0.10;0.10;;;;;;;;;;5150974;27;20047;-51
2023/10/05 04:04:37;;;;;;;0.10;0.10;;;;;;;;;;5151102;27;20043;-52
2023/10/05 04:07:03;;;;;;;0.10;0.10;;;;;;;;;;5151334;27;20133;-50
2023/10/05 04:09:29;;;;;;;0.10;0.10;;;;;;;;;;5132926;27;20036;-51
2023/10/05 04:11:55;;;;;;;0.10;0.10;;;;;;;;;;5150250;27;20050;-51
2023/10/05 04:14:22;;;;;;;0.10;0.10;;;;;;;;;;5151110;27;20085;-52
2023/10/05 04:16:48;;;;;;;0.20;0.20;;;;;;;;;;5150681;27;20478;-51
2023/10/05 04:19:17;;;;;;;0.13;0.13;;;;;;;;;;5150360;27;20442;-51
2023/10/05 04:21:45;;;;;;;0.10;0.10;;;;;;;;;;5151005;27;20319;-51
2023/10/05 04:24:14;;;;;;;0.10;0.10;;;;;;;;;;5150932;27;20079;-52
2023/10/05 04:26:44;;;;;;;0.20;0.20;;;;;;;;;;5152210;27;20115;-51
2023/10/05 04:29:10;;;;;;;0.20;0.20;;;;;;;;;;5153891;27;20478;-52
2023/10/05 04:31:36;;;;;;;0.20;0.20;;;;;;;;;;5154241;27;20051;-51
2023/10/05 04:34:05;;;;;;;0.10;0.10;;;;;;;;;;5154267;27;20393;-51
2023/10/05 04:36:31;;;;;;;0.10;0.10;;;;;;;;;;5154586;27;20055;-51
2023/10/05 04:38:57;;;;;;;0.10;0.10;;;;;;;;;;5151202;27;20074;-51
2023/10/05 04:41:28;;;;;;;0.10;0.10;;;;;;;;;;5133130;27;20138;-51
2023/10/05 04:43:55;;;;;;;0.20;0.20;;;;;;;;;;5133036;28;20075;-51
2023/10/05 04:46:21;;;;;;;0.10;0.10;;;;;;;;;;5132996;28;20047;-50
2023/10/05 04:48:55;;;;;;;0.10;0.10;;;;;;;;;;5139105;27;20047;-51
2023/10/05 04:51:22;;;;;;;0.17;0.17;;;;;;;;;;5132595;28;20055;-51
2023/10/05 04:53:52;;;;;;;0.10;0.10;;;;;;;;;;5133414;27;20074;-51
2023/10/05 04:56:27;;;;;;;0.10;0.10;;;;;;;;;;5133295;28;20047;-50
2023/10/05 04:58:53;;;;;;;0.20;0.20;;;;;;;;;;5145182;27;20074;-51
2023/10/05 05:01:56;;;;;;;0.10;0.10;;;;;;;;;;5153885;27;20414;-52
2023/10/05 05:04:27;;;;;;;0.10;0.10;;;;;;;;;;5138276;27;20039;-51
2023/10/05 05:06:53;;;;;;;0.10;0.10;;;;;;;;;;5138432;27;20046;-51
2023/10/05 05:09:19;;;;;;;0.10;0.10;;;;;;;;;;5135727;27;20483;-49
2023/10/05 05:11:47;;;;;;;0.10;0.10;;;;;;;;;;5152672;27;20054;-50
2023/10/05 05:14:12;;;;;;;0.10;0.10;;;;;;;;;;5141273;27;20050;-51
2023/10/05 05:16:40;;;;;;;0.10;0.10;;;;;;;;;;5133403;28;20085;-51
2023/10/05 05:19:06;;;;;;;0.15;0.15;;;;;;;;;;5146685;27;20050;-49
2023/10/05 05:21:34;;;;;;;0.10;0.10;;;;;;;;;;5154373;27;20071;-51
2023/10/05 05:24:00;;;;;;;0.10;0.10;;;;;;;;;;5154209;27;20074;-51
2023/10/05 05:26:26;;;;;;;0.10;0.10;;;;;;;;;;5135227;27;20066;-51
2023/10/05 05:28:52;;;;;;;0.10;0.10;;;;;;;;;;5153683;27;20146;-50
2023/10/05 05:31:18;;;;;;;0.10;0.10;;;;;;;;;;5153950;27;20057;-50
2023/10/05 05:33:44;;;;;;;0.10;0.10;;;;;;;;;;5154254;27;20046;-51
2023/10/05 05:36:12;;;;;;;0.10;0.10;;;;;;;;;;5154215;27;20045;-51
2023/10/05 05:38:39;;;;;;;0.10;0.10;;;;;;;;;;5152809;27;20089;-51
2023/10/05 05:41:11;;;;;;;0.10;0.10;;;;;;;;;;5129869;28;20082;-51
2023/10/05 05:43:39;;;;;;;0.10;0.10;;;;;;;;;;5113561;28;20055;-50
2023/10/05 05:46:09;;;;;;;0.10;0.10;;;;;;;;;;5132664;28;20058;-51
2023/10/05 05:48:35;;;;;;;0.10;0.10;;;;;;;;;;5141840;27;20058;-50
2023/10/05 05:51:06;;;;;;;0.10;0.10;;;;;;;;;;5144074;27;20051;-52
2023/10/05 05:53:32;;;;;;;0.10;0.10;;;;;;;;;;5132526;28;20043;-52
2023/10/05 05:56:01;;;;;;;0.10;0.10;;;;;;;;;;5133174;28;20047;-52
2023/10/05 05:58:26;;;;;;;0.20;0.20;;;;;;;;;;5140901;27;20178;-52
2023/10/05 06:00:52;;;;;;;0.10;0.10;;;;;;;;;;5153267;27;20057;-52
2023/10/05 06:03:18;;;;;;;0.20;0.20;;;;;;;;;;5153181;27;20047;-51
2023/10/05 06:05:44;;;;;;;0.10;0.10;;;;;;;;;;5153074;27;20520;-52
2023/10/05 06:08:11;;;;;;;0.10;0.10;;;;;;;;;;5141746;27;20057;-51
2023/10/05 06:10:36;;;;;;;0.20;0.20;;;;;;;;;;5152281;27;20070;-51
2023/10/05 06:13:05;;;;;;;0.20;0.20;;;;;;;;;;5152386;27;20057;-51
2023/10/05 06:15:30;;;;;;;;;;;;;;;;;;5153244;27;20098;-52
2023/10/05 06:17:59;;;;;;;0.20;0.20;;;;;;;;;;5152229;27;19931;-51
2023/10/05 06:20:25;;;;;;;0.10;0.10;;;;;;;;;;5152997;27;20051;-50
2023/10/05 06:22:50;;;;;;;0.20;0.20;;;;;;;;;;5152432;27;20095;-52
2023/10/05 06:25:17;;;;;;;0.20;0.20;;;;;;;;;;5152889;27;20134;-51
2023/10/05 06:27:44;;;;;;;0.10;0.10;;;;;;;;;;5152128;27;20047;-50
2023/10/05 06:30:11;;;;;;;0.10;0.10;;;;;;;;;;5133816;27;20458;-52
2023/10/05 06:32:37;;;;;;;0.10;0.10;;;;;;;;;;5152373;27;20518;-51
2023/10/05 06:35:03;;;;;;;0.20;0.20;;;;;;;;;;5152876;27;20049;-51
2023/10/05 06:37:29;;;;;;;0.15;0.15;;;;;;;;;;5152051;27;20061;-51
2023/10/05 06:39:55;;;;;;;0.20;0.20;;;;;;;;;;5152282;27;20051;-51
2023/10/05 06:42:21;;;;;;;0.20;0.20;;;;;;;;;;5151390;27;20054;-51
2023/10/05 06:44:46;;;;;;;0.10;0.10;;;;;;;;;;5131115;27;20055;-52
2023/10/05 06:47:34;;;;;;;0.10;0.10;;;;;;;;;;5131024;27;20043;-51
2023/10/05 06:49:58;;;;;;;0.10;0.10;;;;;;;;;;5094669;28;20055;-50
2023/10/05 06:52:24;;;;;;;0.10;0.10;;;;;;;;;;5115113;28;20047;-51
2023/10/05 06:54:50;;;;;;;0.10;0.10;;;;;;;;;;5130652;28;20297;-52
2023/10/05 06:57:16;;;;;;;0.20;0.20;;;;;;;;;;5131614;28;20043;-51
2023/10/05 06:59:42;;;;;;;0.20;0.20;;;;;;;;;;5150069;27;20047;-52
2023/10/05 07:02:08;;;;;;;0.15;0.15;;;;;;;;;;5152517;27;20050;-51
2023/10/05 07:04:37;;;;;;;0.10;0.10;;;;;;;;;;5151246;27;20457;-49
2023/10/05 07:07:03;;;;;;;0.15;0.15;;;;;;;;;;5147275;27;20043;-52
2023/10/05 07:09:30;;;;;;;0.10;0.10;;;;;;;;;;5151488;27;20051;-51
2023/10/05 07:11:55;;;;;;;0.10;0.10;;;;;;;;;;5151532;27;20474;-51
2023/10/05 07:14:21;;;;;;;0.10;0.10;;;;;;;;;;5151767;27;20049;-51
2023/10/05 07:16:46;;;;;;;0.10;0.10;;;;;;;;;;5152347;27;20047;-51
2023/10/05 07:19:12;;;;;;;0.10;0.10;;;;;;;;;;5151266;27;20057;-52
2023/10/05 07:21:38;;;;;;;0.13;0.13;;;;;;;;;;5151858;27;20064;-51
2023/10/05 07:24:04;;;;;;;0.10;0.10;;;;;;;;;;5151673;27;20046;-50
2023/10/05 07:26:30;;;;;;;0.10;0.10;;;;;;;;;;5151303;27;20050;-52
2023/10/05 07:28:55;;;;;;;0.20;0.20;;;;;;;;;;5150859;27;20480;-51
2023/10/05 07:31:22;;;;;;;0.10;0.10;;;;;;;;;;5151117;27;20380;-52
2023/10/05 07:33:48;;;;;;;0.13;0.13;;;;;;;;;;5151590;27;20563;-52
2023/10/05 07:36:14;;;;;;;0.10;0.10;;;;;;;;;;5151236;27;20047;-52
2023/10/05 07:38:40;;;;;;;0.10;0.10;;;;;;;;;;5151251;27;20049;-51
2023/10/05 07:41:07;;;;;;;0.10;0.10;;;;;;;;;;5150941;27;20051;-51
2023/10/05 07:43:34;;;;;;;0.20;0.20;;;;;;;;;;5151031;27;20096;-51
2023/10/05 07:46:00;;;;;;;0.10;0.10;;;;;;;;;;5134675;27;20050;-51
2023/10/05 07:48:26;;;;;;;0.20;0.20;;;;;;;;;;5138022;27;20043;-50
2023/10/05 07:50:52;;;;;;;0.10;0.10;;;;;;;;;;5150969;27;20038;-51
2023/10/05 07:53:17;;;;;;;0.10;0.10;;;;;;;;;;5151545;27;20360;-51
2023/10/05 07:55:43;;;;;;;0.10;0.10;;;;;;;;;;5132589;27;20135;-51
2023/10/05 07:58:08;;;;;;;0.10;0.10;;;;;;;;;;5136758;27;20062;-52
2023/10/05 08:00:34;;;;;;;0.10;0.10;;;;;;;;;;5151481;27;20191;-50
2023/10/05 08:03:00;;;;;;;0.20;0.20;;;;;;;;;;5155333;27;20371;-51
2023/10/05 08:05:26;;;;;;;0.10;0.10;;;;;;;;;;5155172;27;20047;-51
2023/10/05 08:07:54;;;;;;;0.10;0.10;;;;;;;;;;5135543;27;20091;-52
2023/10/05 08:10:20;;;;;;;0.10;0.10;;;;;;;;;;5154831;27;20058;-50
2023/10/05 08:12:48;;;;;;;0.20;0.20;;;;;;;;;;5154473;27;20039;-52
2023/10/05 08:15:17;;;;;;;0.20;0.20;;;;;;;;;;5154907;27;20054;-52
2023/10/05 08:17:42;;;;;;;0.10;0.10;;;;;;;;;;5154261;27;20051;-51
2023/10/05 08:20:08;;;;;;;0.10;0.10;;;;;;;;;;5154903;27;20150;-52
2023/10/05 08:22:34;;;;;;;0.10;0.10;;;;;;;;;;5154575;27;20410;-50
2023/10/05 08:25:03;;;;;;;0.10;0.10;;;;;;;;;;5154783;27;20474;-51
2023/10/05 08:27:32;;;;;;;0.20;0.20;;;;;;;;;;5154020;27;20376;-50
2023/10/05 08:30:00;;;;;;;0.20;0.20;;;;;;;;;;5153850;27;20072;-51
2023/10/05 08:32:27;;;;;;;0.10;0.10;;;;;;;;;;5154337;27;20066;-52
2023/10/05 08:34:53;;;;;;;0.10;0.10;;;;;;;;;;5153457;27;20067;-52
2023/10/05 08:37:22;;;;;;;0.10;0.10;;;;;;;;;;5153992;27;20047;-51
2023/10/05 08:39:48;;;;;;;0.10;0.10;;;;;;;;;;5153749;27;20448;-52
2023/10/05 08:42:14;;;;;;;0.20;0.20;;;;;;;;;;5154306;27;20039;-51
2023/10/05 08:44:41;;;;;;;0.20;0.20;;;;;;;;;;5153909;27;20192;-52
2023/10/05 08:47:10;;;;;;;0.10;0.10;;;;;;;;;;5143151;27;20502;-51
2023/10/05 08:49:36;;;;;;;0.10;0.10;;;;;;;;;;5151246;27;20139;-51
2023/10/05 08:52:13;;;;;;;0.10;0.10;;;;;;;;;;5154303;27;20054;-51
2023/10/05 08:54:39;;;;;;;0.10;0.10;;;;;;;;;;5154061;27;20051;-51
2023/10/05 08:57:11;;;;;;;0.13;0.13;;;;;;;;;;5138613;27;20411;-51
2023/10/05 08:59:37;;;;;;;0.10;0.10;;;;;;;;;;5150278;27;20053;-51
2023/10/05 09:02:04;;;;;;;0.10;0.10;;;;;;;;;;5153902;27;20411;-51
2023/10/05 09:04:43;;;;;;;0.10;0.10;;;;;;;;;;5153724;27;20362;-51
2023/10/05 09:07:09;;;;;;;0.20;0.20;;;;;;;;;;5129843;27;20075;-51
2023/10/05 09:09:38;;;;;;;0.10;0.10;;;;;;;;;;5150700;27;20051;-51
2023/10/05 09:12:37;;;;;;;0.10;0.10;;;;;;;;;;5150058;27;20100;-51
2023/10/05 09:15:05;;;;;;;0.10;0.10;;;;;;;;;;5133169;28;20461;-52
2023/10/05 09:17:34;;;;;;;0.10;0.10;;;;;;;;;;5132521;27;20051;-51
2023/10/05 09:20:21;;;;;;;0.20;0.20;;;;;;;;;;5153536;27;20431;-51
2023/10/05 09:22:47;;;;;;;0.10;0.10;;;;;;;;;;5138646;27;20077;-51
2023/10/05 09:25:16;;;;;;;0.10;0.10;;;;;;;;;;5153875;27;20050;-51
2023/10/05 09:27:50;;;;;;;0.10;0.10;;;;;;;;;;5153025;27;20050;-51
2023/10/05 09:30:20;;;;;;;0.20;0.20;;;;;;;;;;5153234;27;20043;-50
2023/10/05 09:32:46;;;;;;;0.10;0.10;;;;;;;;;;5153286;27;20058;-52
2023/10/05 09:35:26;;;;;;;0.15;0.15;;;;;;;;;;5153847;27;20046;-51
2023/10/05 09:37:56;;;;;;;0.13;0.13;;;;;;;;;;5153131;27;20047;-52
2023/10/05 09:40:22;;;;;;;0.10;0.10;;;;;;;;;;5153162;27;20387;-52
2023/10/05 09:42:50;;;;;;;0.10;0.10;;;;;;;;;;5153239;27;20095;-51
2023/10/05 09:45:17;;;;;;;0.10;0.10;;;;;;;;;;5154037;27;20051;-52
2023/10/05 09:47:46;;;;;;;0.10;0.10;;;;;;;;;;5152432;27;20110;-51
2023/10/05 09:50:13;;;;;;;0.10;0.10;;;;;;;;;;5132148;28;20051;-51
2023/10/05 09:52:43;;;;;;;;;;;;;;;;;;5133456;28;20051;-51
2023/10/05 09:55:12;;;;;;;0.10;0.10;;;;;;;;;;5133397;28;19919;-51
2023/10/05 09:57:41;;;;;;;0.13;0.13;;;;;;;;;;5133092;27;20394;-51
2023/10/05 10:00:11;;;;;;;0.10;0.10;;;;;;;;;;5131829;27;20043;-51
2023/10/05 10:02:38;;;;;;;0.10;0.10;;;;;;;;;;5132700;28;20055;-52
2023/10/05 10:05:22;;;;;;;0.10;0.10;;;;;;;;;;5132858;28;20047;-51
2023/10/05 10:07:49;;;;;;;0.20;0.20;;;;;;;;;;5115875;27;20054;-51
2023/10/05 10:10:18;;;;;;;0.10;0.10;;;;;;;;;;5130590;28;20047;-52
2023/10/05 10:12:46;;;;;;;0.20;0.20;;;;;;;;;;5131926;28;20472;-51
2023/10/05 10:15:25;;;;;;;0.10;0.10;;;;;;;;;;5132860;28;20081;-51
2023/10/05 10:18:03;;;;;;;0.10;0.10;;;;;;;;;;5135469;27;20046;-52
2023/10/05 10:20:35;;;;;;;0.10;0.10;;;;;;;;;;5143014;27;20076;-52
2023/10/05 10:23:22;;;;;;;0.10;0.10;;;;;;;;;;5131790;27;20104;-52
2023/10/05 10:25:50;;;;;;;0.10;0.10;;;;;;;;;;5131033;28;20074;-51
2023/10/05 10:28:20;;;;;;;0.10;0.10;;;;;;;;;;5138772;27;20054;-52
2023/10/05 10:30:47;;;;;;;0.20;0.20;;;;;;;;;;5152198;27;20081;-49
2023/10/05 10:33:30;;;;;;;0.10;0.10;;;;;;;;;;5152694;27;20046;-51
2023/10/05 10:35:56;;;;;;;0.10;0.10;;;;;;;;;;5152695;27;20061;-51
2023/10/05 10:38:23;;;;;;;0.20;0.20;;;;;;;;;;5152236;27;20046;-49
2023/10/05 10:41:07;;;;;;;0.15;0.15;;;;;;;;;;5152426;27;20347;-52
2023/10/05 10:43:33;;;;;;;0.13;0.13;;;;;;;;;;5151360;27;20046;-51
2023/10/05 10:46:06;;;;;;;0.10;0.10;;;;;;;;;;5152035;27;20050;-50
2023/10/05 10:48:36;;;;;;;0.20;0.20;;;;;;;;;;5151622;27;20057;-52
2023/10/05 10:51:10;;;;;;;0.10;0.10;;;;;;;;;;5137857;27;20047;-51
2023/10/05 10:53:39;;;;;;;0.10;0.10;;;;;;;;;;5130808;28;20054;-52
2023/10/05 10:56:17;;;;;;;0.10;0.10;;;;;;;;;;5130132;28;20453;-51
2023/10/05 10:58:44;;;;;;;0.20;0.20;;;;;;;;;;5142037;27;20042;-50
2023/10/05 11:01:28;;;;;;;0.20;0.20;;;;;;;;;;5135201;27;20462;-51
2023/10/05 11:03:56;;;;;;;0.10;0.10;;;;;;;;;;5130711;28;20220;-51
2023/10/05 11:06:26;;;;;;;0.10;0.10;;;;;;;;;;5130966;27;20416;-50
2023/10/05 11:08:51;;;;;;;0.10;0.10;;;;;;;;;;5134437;27;20047;-51
2023/10/05 11:11:19;;;;;;;0.20;0.20;;;;;;;;;;5141987;27;20082;-51
2023/10/05 11:13:49;;;;;;;0.10;0.10;;;;;;;;;;5130690;27;20043;-51
2023/10/05 11:16:16;;;;;;;0.10;0.10;;;;;;;;;;5131576;28;20116;-52
2023/10/05 11:18:57;;;;;;;0.10;0.10;;;;;;;;;;5141260;27;20664;-51
2023/10/05 11:21:25;;;;;;;0.10;0.10;;;;;;;;;;5149812;27;20050;-51
2023/10/05 11:23:58;;;;;;;;;;;;;;;;;;5129901;28;20313;-52
2023/10/05 11:26:56;;;;;;;0.10;0.10;;;;;;;;;;5131312;28;20338;-51
2023/10/05 11:29:15;;;;;;;0.13;0.13;;;;;;;;;;5115704;28;20043;-50
2023/10/05 11:31:41;;;;;;;0.10;0.10;;;;;;;;;;5130974;28;20078;-52
2023/10/05 11:34:38;;;;;;;0.10;0.10;;;;;;;;;;5115626;27;20051;-51
2023/10/05 11:37:25;;;;;;;0.20;0.20;;;;;;;;;;5116034;28;20040;-52
2023/10/05 11:39:58;;;;;;;0.10;0.10;;;;;;;;;;5151253;27;20054;-51
2023/10/05 11:42:25;;;;;;;0.20;0.20;;;;;;;;;;5151124;27;20062;-51
2023/10/05 11:44:52;;;;;;;0.10;0.10;;;;;;;;;;5151422;27;20046;-51
2023/10/05 11:47:25;;;;;;;0.10;0.10;;;;;;;;;;5150760;27;20506;-52
2023/10/05 11:49:50;;;;;;;0.10;0.10;;;;;;;;;;5150115;27;20046;-51
2023/10/05 11:52:17;;;;;;;0.10;0.10;;;;;;;;;;5151156;27;20042;-52
2023/10/05 11:54:42;;;;;;;0.17;0.17;;;;;;;;;;5151340;27;20042;-51
2023/10/05 11:57:08;;;;;;;0.10;0.10;;;;;;;;;;5151314;27;20095;-52
2023/10/05 11:59:35;;;;;;;0.20;0.20;;;;;;;;;;5150735;27;20288;-52
2023/10/05 12:02:05;;;;;;;0.10;0.10;;;;;;;;;;5151359;27;20047;-52
2023/10/05 12:04:31;;;;;;;0.20;0.20;;;;;;;;;;5148697;27;20050;-51
2023/10/05 12:06:58;;;;;;;0.20;0.20;;;;;;;;;;5136618;27;20055;-52
2023/10/05 12:09:28;;;;;;;0.10;0.10;;;;;;;;;;5150129;27;20051;-51
2023/10/05 12:11:54;;;;;;;0.10;0.10;;;;;;;;;;5150051;27;20509;-49
2023/10/05 12:14:20;;;;;;;0.10;0.10;;;;;;;;;;5142739;27;20047;-51
2023/10/05 12:16:46;;;;;;;0.10;0.10;;;;;;;;;;5130267;28;20119;-51
2023/10/05 12:19:15;;;;;;;0.20;0.20;;;;;;;;;;5144880;27;20415;-51
2023/10/05 12:21:42;;;;;;;0.20;0.20;;;;;;;;;;5150934;27;20050;-50
2023/10/05 12:24:10;;;;;;;0.10;0.10;;;;;;;;;;5139692;27;20528;-51
2023/10/05 12:26:35;;;;;;;0.20;0.20;;;;;;;;;;5129808;28;20047;-49
2023/10/05 12:29:01;;;;;;;0.20;0.20;;;;;;;;;;5143119;27;20502;-50
2023/10/05 12:31:26;;;;;;;0.20;0.20;;;;;;;;;;5150366;27;20204;-50
2023/10/05 12:33:52;;;;;;;0.10;0.10;;;;;;;;;;5150407;27;20062;-50
2023/10/05 12:36:17;;;;;;;0.20;0.20;;;;;;;;;;5150957;27;20091;-51
2023/10/05 12:38:43;;;;;;;0.10;0.10;;;;;;;;;;5150663;27;20123;-51
2023/10/05 12:41:16;;;;;;;0.10;0.10;;;;;;;;;;5150923;27;20078;-51
2023/10/05 12:43:42;;;;;;;0.10;0.10;;;;;;;;;;5150432;27;20415;-51
2023/10/05 12:46:10;;;;;;;0.10;0.10;;;;;;;;;;5151081;27;20054;-51
2023/10/05 12:48:38;;;;;;;0.10;0.10;;;;;;;;;;5154001;27;20078;-51
2023/10/05 12:51:05;;;;;;;0.10;0.10;;;;;;;;;;5153874;27;20436;-51
2023/10/05 12:53:33;;;;;;;0.10;0.10;;;;;;;;;;5154242;27;20050;-51
2023/10/05 12:56:01;;;;;;;0.20;0.20;;;;;;;;;;5154413;27;20440;-51
2023/10/05 12:58:27;;;;;;;0.22;0.22;;;;;;;;;;5154740;27;20107;-52
2023/10/05 13:00:53;;;;;;;0.20;0.20;;;;;;;;;;5154674;27;20050;-51
2023/10/05 13:03:24;;;;;;;0.10;0.10;;;;;;;;;;5154779;27;20050;-51
2023/10/05 13:05:51;;;;;;;0.13;0.13;;;;;;;;;;5126158;27;20115;-51
2023/10/05 13:08:17;;;;;;;0.10;0.10;;;;;;;;;;5154309;27;20062;-51
2023/10/05 13:10:44;;;;;;;0.17;0.17;;;;;;;;;;5153429;27;20432;-51
2023/10/05 13:13:16;;;;;;;0.10;0.10;;;;;;;;;;5153371;27;20188;-50
2023/10/05 13:15:43;;;;;;;0.20;0.20;;;;;;;;;;5149497;27;20054;-51
2023/10/05 13:18:17;;;;;;;0.65;0.17;;;;;;;;;;5138316;27;20047;-50
2023/10/05 13:20:51;;;;;;;0.20;0.20;;;;;;;;;;5153965;27;20061;-49
2023/10/05 13:23:19;;;;;;;0.10;0.10;;;;;;;;;;5153995;27;20411;-50
2023/10/05 13:25:47;;;;;;;0.10;0.10;;;;;;;;;;5143086;27;20059;-51
2023/10/05 13:28:16;;;;;;;0.17;0.17;;;;;;;;;;5138853;27;20051;-49
2023/10/05 13:30:42;;;;;;;0.10;0.10;;;;;;;;;;5152690;27;20083;-51
2023/10/05 13:33:13;;;;;;;0.20;0.20;;;;;;;;;;5134794;27;20073;-50
2023/10/05 13:35:41;;;;;;;0.13;0.13;;;;;;;;;;5153368;27;20089;-50
2023/10/05 13:38:08;;;;;;;0.10;0.10;;;;;;;;;;5153093;27;20053;-49
2023/10/05 13:40:35;;;;;;;0.20;0.20;;;;;;;;;;5153667;27;20092;-50
2023/10/05 13:43:01;;;;;;;0.10;0.10;;;;;;;;;;5152579;27;20392;-50
2023/10/05 13:45:28;;;;;;;0.10;0.10;;;;;;;;;;5153542;27;20383;-51
2023/10/05 13:47:54;;;;;;;0.10;0.10;;;;;;;;;;5152867;27;20050;-51
2023/10/05 13:50:22;;;;;;;0.20;0.20;;;;;;;;;;5153041;27;20478;-51
2023/10/05 13:52:50;;;;;;;0.10;0.10;;;;;;;;;;5153097;27;20046;-50
2023/10/05 13:55:20;;;;;;;0.20;0.20;;;;;;;;;;5153511;27;20482;-51
2023/10/05 13:57:47;;;;;;;0.20;0.20;;;;;;;;;;5153459;27;20099;-51
2023/10/05 14:00:18;;;;;;;0.10;0.10;;;;;;;;;;5153960;27;20043;-49
2023/10/05 14:02:44;;;;;;;0.10;0.10;;;;;;;;;;5152586;27;20054;-50
2023/10/05 14:05:09;;;;;;;0.10;0.10;;;;;;;;;;5147295;27;20573;-51
2023/10/05 14:07:35;;;;;;;0.10;0.10;;;;;;;;;;5153457;27;20129;-50
2023/10/05 14:10:02;;;;;;;0.10;0.10;;;;;;;;;;5153182;27;20424;-51
2023/10/05 14:12:28;;;;;;;0.20;0.20;;;;;;;;;;5152662;27;20051;-51
2023/10/05 14:14:54;;;;;;;0.10;0.10;;;;;;;;;;5153432;27;20057;-51
2023/10/05 14:17:19;;;;;;;0.17;0.17;;;;;;;;;;5148556;27;20479;-51
2023/10/05 14:19:45;;;;;;;0.10;0.10;;;;;;;;;;5133464;27;20047;-51
2023/10/05 14:22:12;;;;;;;0.20;0.20;;;;;;;;;;5132666;28;20078;-49
2023/10/05 14:24:40;;;;;;;0.10;0.10;;;;;;;;;;5132761;28;20047;-51
2023/10/05 14:27:05;;;;;;;0.10;0.10;;;;;;;;;;5132602;28;20548;-51
2023/10/05 14:29:34;;;;;;;0.13;0.13;;;;;;;;;;5132987;27;20043;-50
2023/10/05 14:32:04;;;;;;;0.17;0.17;;;;;;;;;;5132228;27;20054;-51
2023/10/05 14:34:31;;;;;;;0.10;0.10;;;;;;;;;;5132501;27;20065;-51
2023/10/05 14:36:58;;;;;;;0.10;0.10;;;;;;;;;;5132319;27;20077;-51
2023/10/05 14:39:32;;;;;;;0.20;0.20;;;;;;;;;;5148035;27;20047;-49
2023/10/05 14:42:00;;;;;;;0.10;0.10;;;;;;;;;;5152617;27;20047;-50
2023/10/05 14:44:28;;;;;;;0.10;0.10;;;;;;;;;;5152402;27;20066;-51
2023/10/05 14:46:58;;;;;;;0.20;0.20;;;;;;;;;;5152357;27;20785;-50
2023/10/05 14:49:23;;;;;;;0.20;0.20;;;;;;;;;;5152006;27;20467;-51
2023/10/05 14:51:50;;;;;;;0.20;0.20;;;;;;;;;;5151880;27;20542;-52
2023/10/05 14:54:16;;;;;;;0.20;0.20;;;;;;;;;;5152246;27;20051;-51
2023/10/05 14:56:43;;;;;;;0.10;0.10;;;;;;;;;;5152184;27;20506;-51